Baker, Nevada
Current Conditions -  °F | °C
As of 12:53 PM on Tuesday 21 Oct 2014 (Local Time) from KELY Reporting Station
Clear Clear  
Wind Chill: 62°   Ceiling: Unl
Heat Index: 62°   Visibility: 10mi
Dew Point: 11°   Wind: 13mph
Humidity: 13%   Direction: 270°W
Pressure: 30.04"   Gusts: 17mph
Location:  39.01°N, 114.13°W
Report Text: KELY 211953Z AUTO 27011G15KT 250V320 10SM CLR 17/M12 A3004 RMK AO2 SLP093 T01671117
Loading
Personal Weather Stations






























Interactive Weather Map
Tropical Storm Tracking
New forecast layout! Learn more

10-Day Weather Forecast

Advertisements
Track Severe Weather on mobile